Time;durP1;ratioP1;P1;durP2;ratioP2;P2;SDS_P1;SDS_P2;PMS_P1;PMS_P2;Temp;Humidity;BMP_temperature;BMP_pressure;BME280_temperature;BME280_humidity;BME280_pressure;Samples;Min_cycle;Max_cycle;Signal;HPM_P1;HPM_P2
2022/11/26 00:00:14;;;;;;;31.20;10.18;;;6.10;99.90;;;;;;7613483;19;20033;-74
2022/11/26 00:02:46;;;;;;;21.00;8.48;;;6.10;99.90;;;;;;7613215;19;20025;-73
2022/11/26 00:05:20;;;;;;;22.40;11.00;;;6.10;99.90;;;;;;7589829;19;20014;-73
2022/11/26 00:07:53;;;;;;;;;;;6.00;99.90;;;;;;7591451;19;20029;-73
2022/11/26 00:10:28;;;;;;;25.80;10.45;;;6.00;99.90;;;;;;7585230;19;20505;-73
2022/11/26 00:13:01;;;;;;;20.20;9.40;;;6.00;99.90;;;;;;7595177;19;20022;-73
2022/11/26 00:15:33;;;;;;;22.60;10.45;;;6.00;99.90;;;;;;7611442;19;20048;-73
2022/11/26 00:18:05;;;;;;;23.83;9.07;;;6.00;99.90;;;;;;7611762;19;20018;-73
2022/11/26 00:20:37;;;;;;;28.52;12.30;;;6.00;99.90;;;;;;7606904;19;20964;-73
2022/11/26 00:23:21;;;;;;;17.73;9.98;;;5.90;99.90;;;;;;7606567;19;20030;-73
2022/11/26 00:26:00;;;;;;;19.67;9.82;;;6.00;99.90;;;;;;7600836;19;20041;-73
2022/11/26 00:28:34;;;;;;;20.35;9.75;;;6.00;99.90;;;;;;7600523;19;20023;-73
2022/11/26 00:31:13;;;;;;;28.88;11.60;;;6.00;99.90;;;;;;7600421;19;20014;-73
2022/11/26 00:33:45;;;;;;;21.38;11.75;;;6.00;99.90;;;;;;7605644;19;20370;-73
2022/11/26 00:36:20;;;;;;;20.52;12.07;;;6.00;99.90;;;;;;7610406;19;20111;-73
2022/11/26 00:39:06;;;;;;;34.28;14.15;;;5.90;99.90;;;;;;7610898;19;20430;-73
2022/11/26 00:41:39;;;;;;;30.08;10.77;;;5.80;99.90;;;;;;7589195;19;20026;-73
2022/11/26 00:44:23;;;;;;;20.23;10.35;;;6.00;99.90;;;;;;7588289;19;20018;-73
2022/11/26 00:46:55;;;;;;;20.75;10.68;;;6.00;99.90;;;;;;7602201;19;20451;-73
2022/11/26 00:49:30;;;;;;;25.30;9.93;;;5.90;99.90;;;;;;7606921;19;20032;-73
2022/11/26 00:52:03;;;;;;;22.73;10.40;;;5.90;99.90;;;;;;7601089;19;20094;-73
2022/11/26 00:54:35;;;;;;;25.07;10.53;;;5.90;99.90;;;;;;7595694;19;20022;-73
2022/11/26 00:57:09;;;;;;;18.67;9.57;;;5.90;99.90;;;;;;7585223;19;20419;-73
2022/11/26 00:59:41;;;;;;;19.08;8.98;;;5.90;99.90;;;;;;7595452;19;20074;-73
2022/11/26 01:02:13;;;;;;;17.92;8.68;;;6.00;99.90;;;;;;7596357;19;20038;-73
2022/11/26 01:04:46;;;;;;;16.05;8.30;;;6.00;99.90;;;;;;7608320;19;20014;-74
2022/11/26 01:07:18;;;;;;;20.13;7.47;;;6.10;99.90;;;;;;7593631;19;20015;-73
2022/11/26 01:09:50;;;;;;;18.17;8.10;;;6.10;99.90;;;;;;7598413;19;20494;-74
2022/11/26 01:12:22;;;;;;;15.45;8.38;;;6.10;99.90;;;;;;7604940;19;20078;-73
2022/11/26 01:14:54;;;;;;;19.15;8.23;;;6.10;99.90;;;;;;7603414;19;20466;-73
2022/11/26 01:17:26;;;;;;;14.23;7.93;;;6.10;99.90;;;;;;7610954;19;20061;-73
2022/11/26 01:19:58;;;;;;;25.70;8.35;;;6.00;99.90;;;;;;7612409;19;20019;-73
2022/11/26 01:22:30;;;;;;;19.60;8.82;;;6.10;99.90;;;;;;7597645;19;20023;-73
2022/11/26 01:25:02;;;;;;;17.33;7.65;;;6.00;99.90;;;;;;7605865;19;20021;-73
2022/11/26 01:27:34;;;;;;;19.98;8.07;;;6.10;99.90;;;;;;7612228;19;20095;-73
2022/11/26 01:30:20;;;;;;;16.52;7.88;;;6.00;99.90;;;;;;7596050;19;20022;-72
2022/11/26 01:32:52;;;;;;;15.65;7.43;;;6.10;99.90;;;;;;7611575;19;20935;-73
2022/11/26 01:35:24;;;;;;;18.60;7.18;;;6.10;99.90;;;;;;7610573;19;20014;-73
2022/11/26 01:37:56;;;;;;;14.30;7.57;;;6.10;99.90;;;;;;7606799;19;20350;-73
2022/11/26 01:40:32;;;;;;;17.63;6.75;;;6.10;99.90;;;;;;7600540;19;20022;-73
2022/11/26 01:43:18;;;;;;;18.00;7.60;;;6.20;99.90;;;;;;7596947;19;20252;-73
2022/11/26 01:45:50;;;;;;;17.55;7.43;;;6.10;99.90;;;;;;7602908;19;20011;-73
2022/11/26 01:48:33;;;;;;;13.35;6.32;;;6.10;99.90;;;;;;7614377;19;20034;-73
2022/11/26 01:51:07;;;;;;;14.80;7.95;;;6.20;99.90;;;;;;7590793;19;20015;-73
2022/11/26 01:53:48;;;;;;;12.65;6.82;;;6.10;99.90;;;;;;7603562;19;20018;-73
2022/11/26 01:56:35;;;;;;;16.88;6.35;;;6.10;99.90;;;;;;7607987;19;20042;-73
2022/11/26 01:59:25;;;;;;;12.80;5.95;;;6.10;99.90;;;;;;7608405;19;20018;-73
2022/11/26 02:01:58;;;;;;;12.95;6.45;;;6.10;99.90;;;;;;7585536;19;20025;-72
2022/11/26 02:04:53;;;;;;;17.75;6.90;;;6.00;99.90;;;;;;7603761;19;20019;-73
2022/11/26 02:07:25;;;;;;;19.05;6.97;;;6.00;99.90;;;;;;7608708;19;20022;-71
2022/11/26 02:09:57;;;;;;;18.00;6.95;;;6.00;99.90;;;;;;7617643;19;20361;-73
2022/11/26 02:12:30;;;;;;;16.98;7.00;;;6.00;99.90;;;;;;7613445;19;20014;-73
2022/11/26 02:15:02;;;;;;;18.48;6.85;;;5.90;99.90;;;;;;7606234;19;20403;-72
2022/11/26 02:17:43;;;;;;;15.63;7.25;;;5.90;99.90;;;;;;7622106;19;20018;-74
2022/11/26 02:20:19;;;;;;;15.20;6.93;;;5.90;99.90;;;;;;7609422;19;20019;-73
2022/11/26 02:22:51;;;;;;;22.52;6.82;;;6.00;99.90;;;;;;7606358;19;20014;-74
2022/11/26 02:25:57;;;;;;;16.55;6.40;;;6.00;99.90;;;;;;7608100;19;20545;-73
2022/11/26 02:28:49;;;;;;;13.25;7.28;;;6.00;99.90;;;;;;7604280;19;20491;-71
2022/11/26 02:31:45;;;;;;;15.65;6.30;;;6.00;99.90;;;;;;7597789;19;20375;-71
2022/11/26 02:34:29;;;;;;;17.48;8.13;;;6.00;99.90;;;;;;7601446;19;20026;-72
2022/11/26 02:37:30;;;;;;;16.15;7.22;;;6.00;99.90;;;;;;7619623;19;20030;-72
2022/11/26 02:40:02;;;;;;;15.77;5.85;;;6.00;99.90;;;;;;7606607;19;20026;-73
2022/11/26 02:42:35;;;;;;;18.17;7.23;;;6.00;99.90;;;;;;7600789;19;21329;-72
2022/11/26 02:45:23;;;;;;;21.88;7.75;;;5.90;99.90;;;;;;7587321;19;20276;-72
2022/11/26 02:47:58;;;;;;;19.75;6.57;;;5.90;99.90;;;;;;7601177;19;20026;-72
2022/11/26 02:50:56;;;;;;;13.35;7.13;;;6.00;99.90;;;;;;7601735;19;20015;-71
2022/11/26 02:53:32;;;;;;;18.42;7.45;;;6.00;99.90;;;;;;7604565;19;20019;-72
2022/11/26 02:56:09;;;;;;;16.55;6.97;;;5.90;99.90;;;;;;7599683;19;20018;-72
2022/11/26 02:58:42;;;;;;;19.02;7.15;;;6.00;99.90;;;;;;7612319;19;20022;-71
2022/11/26 03:01:27;;;;;;;15.65;6.63;;;5.90;99.90;;;;;;7610446;19;20014;-72
2022/11/26 03:04:08;;;;;;;22.05;7.18;;;5.90;99.90;;;;;;7608805;19;20440;-71
2022/11/26 03:06:41;;;;;;;13.20;7.07;;;5.90;99.90;;;;;;7597775;19;21890;-71
2022/11/26 03:09:16;;;;;;;20.65;7.05;;;6.00;99.90;;;;;;7607945;19;20082;-71
2022/11/26 03:11:49;;;;;;;14.80;6.57;;;6.00;99.90;;;;;;7599789;19;20026;-72
2022/11/26 03:14:21;;;;;;;13.43;7.07;;;6.00;99.90;;;;;;7601522;19;20014;-73
2022/11/26 03:16:53;;;;;;;17.20;7.43;;;5.90;99.90;;;;;;7611513;19;20022;-72
2022/11/26 03:19:25;;;;;;;17.10;7.88;;;5.90;99.90;;;;;;7613765;19;20022;-72
2022/11/26 03:21:57;;;;;;;21.17;7.70;;;5.90;99.90;;;;;;7603584;19;20592;-71
2022/11/26 03:24:30;;;;;;;15.32;7.07;;;5.90;99.90;;;;;;7605282;19;20018;-72
2022/11/26 03:27:02;;;;;;;18.80;9.23;;;5.90;99.90;;;;;;7606667;19;20018;-73
2022/11/26 03:29:34;;;;;;;15.00;8.02;;;5.80;99.90;;;;;;7609301;19;20415;-74
2022/11/26 03:32:07;;;;;;;18.52;8.82;;;5.80;99.90;;;;;;7612255;19;20026;-73
2022/11/26 03:34:39;;;;;;;14.38;7.95;;;5.80;99.90;;;;;;7606482;19;20027;-73
2022/11/26 03:37:11;;;;;;;22.13;8.85;;;5.90;99.90;;;;;;7610053;19;20036;-72
2022/11/26 03:39:43;;;;;;;17.38;8.07;;;5.90;99.90;;;;;;7614189;19;20015;-72
2022/11/26 03:42:16;;;;;;;17.27;7.30;;;5.90;99.90;;;;;;7567276;19;20021;-73
2022/11/26 03:44:48;;;;;;;15.85;7.43;;;5.90;99.90;;;;;;7595781;19;20923;-73
2022/11/26 03:47:20;;;;;;;20.35;8.90;;;5.90;99.90;;;;;;7588588;19;21197;-73
2022/11/26 03:49:52;;;;;;;24.33;8.32;;;5.90;99.90;;;;;;7573993;19;20010;-73
2022/11/26 03:52:24;;;;;;;21.50;8.55;;;5.90;99.90;;;;;;7591353;19;20814;-74
2022/11/26 03:54:56;;;;;;;21.30;9.07;;;5.80;99.90;;;;;;7587069;19;20596;-73
2022/11/26 03:57:28;;;;;;;20.90;11.02;;;5.80;99.90;;;;;;7569849;19;20014;-73
2022/11/26 04:00:00;;;;;;;25.08;9.48;;;5.80;99.90;;;;;;7558599;19;20512;-73
2022/11/26 04:02:35;;;;;;;20.13;9.05;;;5.80;99.90;;;;;;7562298;19;20014;-73
2022/11/26 04:05:07;;;;;;;20.08;9.57;;;5.70;99.90;;;;;;7589458;19;20337;-73
2022/11/26 04:07:39;;;;;;;20.30;10.00;;;5.80;99.90;;;;;;7595649;19;20006;-72
2022/11/26 04:10:12;;;;;;;21.08;9.55;;;5.70;99.90;;;;;;7611463;19;20097;-73
2022/11/26 04:12:44;;;;;;;17.83;8.60;;;5.60;99.90;;;;;;7578725;19;20010;-75
2022/11/26 04:15:16;;;;;;;21.33;9.70;;;5.70;99.90;;;;;;7589767;19;20022;-75
2022/11/26 04:17:48;;;;;;;16.98;9.43;;;5.60;99.90;;;;;;7605171;19;20106;-75
2022/11/26 04:20:20;;;;;;;21.20;9.55;;;5.60;99.90;;;;;;7602716;19;20029;-75
2022/11/26 04:22:52;;;;;;;16.23;8.75;;;5.60;99.90;;;;;;7609753;19;20018;-74
2022/11/26 04:25:25;;;;;;;19.55;9.77;;;5.60;99.90;;;;;;7605548;19;20019;-75
2022/11/26 04:27:57;;;;;;;21.37;9.43;;;5.60;99.90;;;;;;7590092;19;20022;-74
2022/11/26 04:30:29;;;;;;;20.02;9.05;;;5.70;99.90;;;;;;7587342;19;20631;-75
2022/11/26 04:33:01;;;;;;;17.20;8.77;;;5.60;99.90;;;;;;7606205;19;20025;-74
2022/11/26 04:35:33;;;;;;;24.40;8.18;;;5.60;99.90;;;;;;7599070;19;20048;-75
2022/11/26 04:38:05;;;;;;;16.38;8.27;;;5.60;99.90;;;;;;7607506;19;20018;-74
2022/11/26 04:40:37;;;;;;;17.30;8.85;;;5.80;99.90;;;;;;7595640;19;20018;-73
2022/11/26 04:43:10;;;;;;;21.13;9.27;;;5.80;99.90;;;;;;7598012;19;20014;-73
2022/11/26 04:45:42;;;;;;;20.38;9.43;;;5.70;99.90;;;;;;7578676;19;20019;-73
2022/11/26 04:48:14;;;;;;;18.50;8.98;;;5.70;99.90;;;;;;7576812;19;20021;-73
2022/11/26 04:50:48;;;;;;;20.58;8.93;;;5.70;99.90;;;;;;7591385;19;20097;-73
2022/11/26 04:53:20;;;;;;;15.88;8.45;;;5.80;99.90;;;;;;7603142;19;20029;-73
2022/11/26 04:55:53;;;;;;;17.13;9.52;;;5.70;99.90;;;;;;7594884;19;20022;-73
2022/11/26 04:58:25;;;;;;;23.23;10.15;;;5.70;99.90;;;;;;7601039;19;20019;-73
2022/11/26 05:00:57;;;;;;;22.85;8.73;;;5.70;99.90;;;;;;7603080;19;20026;-73
2022/11/26 05:03:29;;;;;;;19.80;9.32;;;5.70;99.90;;;;;;7596356;19;20042;-73
2022/11/26 05:06:01;;;;;;;23.42;10.13;;;5.80;99.90;;;;;;7584508;19;20019;-73
2022/11/26 05:08:34;;;;;;;22.57;9.67;;;5.70;99.90;;;;;;7593591;19;20042;-73
2022/11/26 05:11:06;;;;;;;16.58;8.95;;;5.70;99.90;;;;;;7587997;19;20246;-73
2022/11/26 05:13:38;;;;;;;20.40;8.82;;;5.80;99.90;;;;;;7587523;19;20018;-73
2022/11/26 05:16:10;;;;;;;15.77;9.65;;;5.80;99.90;;;;;;7586905;19;20015;-73
2022/11/26 05:18:42;;;;;;;22.50;9.73;;;5.80;99.90;;;;;;7595433;19;20015;-73
2022/11/26 05:21:14;;;;;;;20.15;9.57;;;5.90;99.90;;;;;;7582059;19;20018;-73
2022/11/26 05:23:47;;;;;;;23.45;10.75;;;5.90;99.90;;;;;;7584553;19;20106;-73
2022/11/26 05:26:19;;;;;;;25.05;11.50;;;5.80;99.90;;;;;;7582619;19;20113;-73
2022/11/26 05:28:51;;;;;;;20.02;10.80;;;5.80;99.90;;;;;;7573472;19;20349;-73
2022/11/26 05:31:23;;;;;;;21.08;10.02;;;5.90;99.90;;;;;;7569387;19;20026;-73
2022/11/26 05:33:55;;;;;;;20.88;9.68;;;5.90;99.90;;;;;;7571931;19;20026;-73
2022/11/26 05:36:27;;;;;;;19.73;9.65;;;5.90;99.90;;;;;;7596940;19;20023;-73
2022/11/26 05:38:59;;;;;;;22.35;9.93;;;5.90;99.90;;;;;;7597263;19;20018;-74
2022/11/26 05:41:31;;;;;;;24.98;10.20;;;6.00;99.90;;;;;;7599306;19;20026;-73
2022/11/26 05:44:03;;;;;;;20.75;10.13;;;5.90;99.90;;;;;;7594057;19;20466;-73
2022/11/26 05:46:40;;;;;;;22.00;10.55;;;5.90;99.90;;;;;;7588253;19;20015;-73
2022/11/26 05:49:13;;;;;;;23.02;10.77;;;5.90;99.90;;;;;;7596312;19;20022;-72
2022/11/26 05:51:45;;;;;;;18.90;9.25;;;5.90;99.90;;;;;;7584374;19;20014;-72
2022/11/26 05:54:17;;;;;;;23.35;10.90;;;5.90;99.90;;;;;;7603453;19;20899;-72
2022/11/26 05:56:49;;;;;;;23.92;10.73;;;5.80;99.90;;;;;;7588817;19;20090;-72
2022/11/26 05:59:28;;;;;;;24.23;10.57;;;5.90;99.90;;;;;;7587056;19;20948;-74
2022/11/26 06:02:00;;;;;;;24.95;11.55;;;5.90;99.90;;;;;;7587396;19;20056;-74
2022/11/26 06:04:32;;;;;;;21.13;10.27;;;5.90;99.90;;;;;;7577945;19;20827;-74
2022/11/26 06:07:04;;;;;;;19.73;10.63;;;5.80;99.90;;;;;;7604672;19;20539;-74
2022/11/26 06:09:36;;;;;;;23.67;9.60;;;5.80;99.90;;;;;;7605836;19;20011;-74
2022/11/26 06:12:09;;;;;;;22.92;10.85;;;5.70;99.90;;;;;;7599568;19;20026;-74
2022/11/26 06:14:41;;;;;;;21.13;9.23;;;5.80;99.90;;;;;;7601099;19;20922;-74
2022/11/26 06:17:14;;;;;;;20.48;9.30;;;5.90;99.90;;;;;;7583392;19;20014;-74
2022/11/26 06:19:46;;;;;;;34.08;17.55;;;5.80;99.90;;;;;;7612142;19;20011;-74
2022/11/26 06:22:18;;;;;;;22.77;10.00;;;5.80;99.90;;;;;;7606806;19;20021;-74
2022/11/26 06:24:50;;;;;;;22.85;11.50;;;5.90;99.90;;;;;;7593814;19;20018;-74
2022/11/26 06:27:23;;;;;;;22.40;10.88;;;5.90;99.90;;;;;;7593889;19;20045;-74
2022/11/26 06:29:55;;;;;;;20.65;10.02;;;5.80;99.90;;;;;;7565260;19;20026;-75
2022/11/26 06:32:28;;;;;;;25.08;10.95;;;5.90;99.90;;;;;;7600833;19;20111;-74
2022/11/26 06:35:01;;;;;;;20.52;9.40;;;5.90;99.90;;;;;;7579279;19;20014;-74
2022/11/26 06:37:33;;;;;;;21.65;10.60;;;5.80;99.90;;;;;;7585694;19;20014;-74
2022/11/26 06:40:06;;;;;;;18.58;10.25;;;5.80;99.90;;;;;;7593914;19;20020;-75
2022/11/26 06:42:38;;;;;;;29.63;10.70;;;5.90;99.90;;;;;;7584221;19;20501;-73
2022/11/26 06:45:10;;;;;;;21.30;11.30;;;5.90;99.90;;;;;;7572248;19;20014;-72
2022/11/26 06:47:44;;;;;;;22.50;10.30;;;5.80;99.90;;;;;;7601345;19;20019;-73
2022/11/26 06:50:19;;;;;;;23.55;11.07;;;5.90;99.90;;;;;;7590251;19;20101;-72
2022/11/26 06:52:52;;;;;;;22.55;10.55;;;5.90;99.90;;;;;;7585862;19;20019;-72
2022/11/26 06:55:24;;;;;;;27.75;10.43;;;5.90;99.90;;;;;;7603825;19;20652;-73
2022/11/26 06:57:56;;;;;;;32.42;11.02;;;5.90;99.90;;;;;;7591593;19;20018;-73
2022/11/26 07:00:28;;;;;;;24.48;10.48;;;5.80;99.90;;;;;;7595212;19;20050;-72
2022/11/26 07:03:00;;;;;;;23.80;10.60;;;5.80;99.90;;;;;;7608016;19;20018;-73
2022/11/26 07:05:33;;;;;;;26.08;11.05;;;5.80;99.90;;;;;;7607299;19;20026;-73
2022/11/26 07:08:06;;;;;;;30.83;11.25;;;5.90;99.90;;;;;;7591556;19;20524;-73
2022/11/26 07:10:38;;;;;;;21.55;9.43;;;5.90;99.90;;;;;;7588612;19;21687;-74
2022/11/26 07:13:15;;;;;;;31.17;10.98;;;5.90;99.90;;;;;;7571862;19;20577;-75
2022/11/26 07:15:47;;;;;;;21.25;10.52;;;5.90;99.90;;;;;;7592748;19;20018;-72
2022/11/26 07:18:20;;;;;;;21.92;9.65;;;5.90;99.90;;;;;;7592849;19;20026;-75
2022/11/26 07:20:51;;;;;;;29.50;9.95;;;5.90;99.90;;;;;;7589544;19;20777;-72
2022/11/26 07:23:23;;;;;;;24.70;10.13;;;5.90;99.90;;;;;;7582118;19;20026;-74
2022/11/26 07:25:58;;;;;;;19.67;9.10;;;5.90;99.90;;;;;;7592793;19;20015;-72
2022/11/26 07:28:31;;;;;;;22.48;9.30;;;5.90;99.90;;;;;;7583435;19;20023;-72
2022/11/26 07:31:11;;;;;;;23.20;9.68;;;5.90;99.90;;;;;;7577552;19;20018;-73
2022/11/26 07:33:48;;;;;;;19.23;7.53;;;6.00;99.90;;;;;;7572535;19;20014;-73
2022/11/26 07:36:23;;;;;;;17.37;7.83;;;5.90;99.90;;;;;;7588616;19;20006;-72
2022/11/26 07:38:57;;;;;;;20.15;8.32;;;5.90;99.90;;;;;;7576822;19;20018;-73
2022/11/26 07:41:29;;;;;;;15.23;8.25;;;6.00;99.90;;;;;;7562444;19;20053;-73
2022/11/26 07:44:01;;;;;;;23.05;8.73;;;6.00;99.90;;;;;;7564397;19;20021;-73
2022/11/26 07:46:33;;;;;;;17.38;7.35;;;6.00;99.90;;;;;;7590303;19;20026;-74
2022/11/26 07:49:06;;;;;;;21.60;7.40;;;6.00;99.90;;;;;;7576314;19;20014;-74
2022/11/26 07:51:38;;;;;;;18.85;8.27;;;6.00;99.90;;;;;;7586877;19;20027;-73
2022/11/26 07:54:10;;;;;;;23.42;7.82;;;6.00;99.90;;;;;;7561617;19;20081;-73
2022/11/26 07:56:42;;;;;;;21.42;8.15;;;6.00;99.90;;;;;;7582345;19;20018;-73
2022/11/26 07:59:14;;;;;;;17.75;6.60;;;5.90;99.90;;;;;;7574732;19;20018;-73
2022/11/26 08:01:47;;;;;;;16.58;7.53;;;5.90;99.90;;;;;;7556178;19;20014;-74
2022/11/26 08:04:19;;;;;;;20.75;6.93;;;5.90;99.90;;;;;;7574721;19;20023;-74
2022/11/26 08:06:52;;;;;;;19.35;7.38;;;5.90;99.90;;;;;;7567319;19;20034;-76
2022/11/26 08:09:24;;;;;;;15.07;6.22;;;5.80;99.90;;;;;;7586747;19;20033;-74
2022/11/26 08:11:56;;;;;;;21.95;6.90;;;5.70;99.90;;;;;;7587647;19;20025;-74
2022/11/26 08:14:29;;;;;;;16.45;7.13;;;5.70;99.90;;;;;;7587188;19;20022;-74
2022/11/26 08:17:01;;;;;;;16.70;5.60;;;5.70;99.90;;;;;;7578848;19;21701;-73
2022/11/26 08:19:33;;;;;;;13.60;5.70;;;5.80;99.90;;;;;;7578903;19;20030;-75
2022/11/26 08:22:05;;;;;;;14.85;5.45;;;5.70;99.90;;;;;;7585129;19;20659;-74
2022/11/26 08:24:38;;;;;;;17.95;8.07;;;5.80;99.90;;;;;;7575657;19;20725;-74
2022/11/26 08:27:11;;;;;;;20.98;10.23;;;5.90;99.90;;;;;;7578698;19;20021;-74
2022/11/26 08:29:43;;;;;;;21.00;8.48;;;5.80;99.90;;;;;;7560066;19;20698;-74
2022/11/26 08:32:16;;;;;;;15.00;7.75;;;5.90;99.90;;;;;;7571361;19;20085;-75
2022/11/26 08:34:48;;;;;;;13.13;7.00;;;5.90;99.90;;;;;;7586206;19;20018;-75
2022/11/26 08:37:20;;;;;;;17.52;7.15;;;5.90;99.90;;;;;;7596525;19;20015;-73
2022/11/26 08:39:52;;;;;;;18.67;8.93;;;5.90;99.90;;;;;;7574051;19;20015;-74
2022/11/26 08:42:24;;;;;;;16.40;7.90;;;5.90;99.90;;;;;;7585137;19;20017;-73
2022/11/26 08:44:56;;;;;;;10.73;5.82;;;6.00;99.90;;;;;;7578202;19;20694;-76
2022/11/26 08:47:28;;;;;;;11.70;4.90;;;6.20;99.90;;;;;;7555561;19;20014;-73
2022/11/26 08:50:00;;;;;;;11.43;4.30;;;6.30;99.90;;;;;;7586249;19;20010;-75
2022/11/26 08:52:32;;;;;;;10.45;5.38;;;6.30;99.90;;;;;;7562885;19;20014;-75
2022/11/26 08:55:05;;;;;;;13.98;5.78;;;6.30;99.90;;;;;;7565465;19;21433;-75
2022/11/26 08:57:37;;;;;;;13.13;5.68;;;6.30;99.90;;;;;;7580477;19;20022;-75
2022/11/26 09:00:09;;;;;;;13.30;5.28;;;6.30;99.90;;;;;;7587189;19;20019;-76
2022/11/26 09:02:41;;;;;;;9.07;5.05;;;6.40;99.90;;;;;;7577734;19;20061;-74
2022/11/26 09:05:14;;;;;;;7.80;4.18;;;6.50;99.90;;;;;;7568767;19;20727;-74
2022/11/26 09:07:46;;;;;;;7.63;4.40;;;6.50;99.90;;;;;;7569355;19;20018;-75
2022/11/26 09:10:20;;;;;;;14.43;4.55;;;6.50;99.90;;;;;;7579863;19;20066;-74
2022/11/26 09:12:52;;;;;;;12.55;4.05;;;6.50;99.90;;;;;;7587330;19;20409;-75
2022/11/26 09:15:24;;;;;;;8.60;3.92;;;6.60;99.90;;;;;;7575341;19;20617;-75
2022/11/26 09:17:57;;;;;;;9.07;4.65;;;6.50;99.90;;;;;;7583397;19;20126;-74
2022/11/26 09:20:29;;;;;;;7.30;4.20;;;6.60;99.90;;;;;;7565668;19;20034;-74
2022/11/26 09:23:01;;;;;;;9.02;4.00;;;6.70;99.90;;;;;;7585948;19;20023;-75
2022/11/26 09:25:36;;;;;;;12.27;4.35;;;6.70;99.90;;;;;;7556300;19;20018;-75
2022/11/26 09:28:09;;;;;;;9.63;3.80;;;6.80;99.90;;;;;;7568098;19;20170;-75
2022/11/26 09:30:41;;;;;;;13.32;4.13;;;6.80;99.90;;;;;;7581681;19;20025;-74
2022/11/26 09:33:13;;;;;;;9.88;4.00;;;6.90;99.90;;;;;;7591664;19;20479;-75
2022/11/26 09:35:45;;;;;;;7.35;4.18;;;6.90;99.90;;;;;;7593918;19;20014;-73
2022/11/26 09:38:17;;;;;;;8.35;4.10;;;6.90;99.90;;;;;;7561911;19;20015;-74
2022/11/26 09:40:56;;;;;;;11.98;4.22;;;7.00;99.90;;;;;;7584156;19;20013;-75
2022/11/26 09:44:01;;;;;;;14.48;4.82;;;7.10;99.90;;;;;;7581496;19;20023;-74
2022/11/26 09:46:50;;;;;;;;;;;7.10;99.90;;;;;;7551325;19;20010;-73
2022/11/26 09:50:02;;;;;;;6.80;3.75;;;7.10;99.90;;;;;;7586932;19;20398;-74
2022/11/26 09:53:03;;;;;;;10.60;4.75;;;7.10;99.90;;;;;;7569534;19;20457;-75
2022/11/26 09:55:39;;;;;;;11.48;5.40;;;7.20;99.90;;;;;;7578393;19;20018;-75
2022/11/26 09:58:35;;;;;;;9.32;4.60;;;7.20;99.90;;;;;;7575138;19;20015;-75
2022/11/26 10:01:13;;;;;;;8.75;4.13;;;7.20;99.90;;;;;;7573608;19;20011;-76
2022/11/26 10:03:45;;;;;;;14.93;6.82;;;7.20;99.90;;;;;;7585510;19;20025;-75
2022/11/26 10:06:41;;;;;;;8.38;4.07;;;7.30;99.90;;;;;;7596904;19;20014;-74
2022/11/26 10:09:32;;;;;;;9.43;4.03;;;7.30;99.90;;;;;;7602097;19;20646;-74
2022/11/26 10:12:33;;;;;;;10.77;4.07;;;7.40;99.90;;;;;;7606735;19;20022;-73
2022/11/26 10:15:36;;;;;;;9.85;4.18;;;7.40;99.90;;;;;;7608921;19;20010;-73
2022/11/26 10:18:31;;;;;;;12.15;4.72;;;7.40;99.90;;;;;;7615408;19;20467;-74
2022/11/26 10:21:13;;;;;;;13.45;5.82;;;7.40;99.90;;;;;;7608436;19;20042;-74
2022/11/26 10:23:57;;;;;;;8.82;5.22;;;7.40;99.90;;;;;;7611244;19;20021;-74
2022/11/26 10:26:34;;;;;;;14.20;6.13;;;7.40;99.90;;;;;;7611003;19;20028;-74
2022/11/26 10:29:25;;;;;;;13.73;5.68;;;7.50;99.90;;;;;;7609486;19;21096;-75
2022/11/26 10:32:04;;;;;;;11.70;5.32;;;7.50;99.90;;;;;;7614362;19;20058;-74
2022/11/26 10:34:50;;;;;;;14.07;6.03;;;7.50;99.90;;;;;;7606385;19;20086;-75
2022/11/26 10:37:24;;;;;;;15.23;5.72;;;7.50;99.90;;;;;;7606610;19;20015;-74
2022/11/26 10:40:16;;;;;;;16.35;7.68;;;7.60;99.90;;;;;;7616872;19;21387;-74
2022/11/26 10:43:07;;;;;;;14.60;5.80;;;7.60;99.90;;;;;;7612822;19;20015;-74
2022/11/26 10:45:51;;;;;;;15.15;6.90;;;7.60;99.90;;;;;;7615033;19;20010;-74
2022/11/26 10:48:28;;;;;;;13.18;5.93;;;7.50;99.90;;;;;;7622748;19;20072;-74
2022/11/26 10:51:12;;;;;;;19.25;5.93;;;7.60;99.90;;;;;;7613787;19;20624;-74
2022/11/26 10:54:00;;;;;;;14.32;5.50;;;7.60;99.90;;;;;;7605125;19;20115;-74
2022/11/26 10:56:44;;;;;;;17.08;7.07;;;7.60;99.90;;;;;;7595460;19;20865;-75
2022/11/26 10:59:21;;;;;;;18.58;8.98;;;7.60;99.90;;;;;;7598544;19;20028;-74
2022/11/26 11:01:54;;;;;;;16.73;7.72;;;7.60;99.90;;;;;;7611731;19;20014;-74
2022/11/26 11:04:37;;;;;;;15.57;5.97;;;7.60;99.90;;;;;;7605291;19;20018;-75
2022/11/26 11:07:32;;;;;;;12.02;6.10;;;7.40;99.90;;;;;;7603540;19;20021;-74
2022/11/26 11:10:17;;;;;;;13.75;6.32;;;7.50;99.90;;;;;;7599575;19;20022;-74
2022/11/26 11:13:12;;;;;;;15.90;5.82;;;7.50;99.90;;;;;;7581638;19;20031;-74
2022/11/26 11:15:44;;;;;;;18.77;7.78;;;7.50;99.90;;;;;;7603381;19;20060;-74
2022/11/26 11:18:21;;;;;;;13.88;6.65;;;7.50;99.90;;;;;;7608165;19;20486;-74
2022/11/26 11:20:59;;;;;;;18.08;6.22;;;7.50;99.90;;;;;;7608391;19;21180;-73
2022/11/26 11:23:36;;;;;;;22.23;8.88;;;7.50;99.90;;;;;;7582418;19;20377;-74
2022/11/26 11:26:42;;;;;;;26.25;9.95;;;7.50;99.90;;;;;;7599190;19;20031;-74
2022/11/26 11:29:24;;;;;;;27.88;10.13;;;7.50;99.90;;;;;;7563499;19;20502;-73
2022/11/26 11:31:56;;;;;;;21.67;9.55;;;7.50;99.90;;;;;;7599720;19;20582;-73
2022/11/26 11:34:38;;;;;;;23.95;10.63;;;7.50;99.90;;;;;;7598094;19;20045;-73
2022/11/26 11:37:14;;;;;;;28.20;9.63;;;7.50;99.90;;;;;;7601695;19;20494;-73
2022/11/26 11:40:03;;;;;;;20.80;10.23;;;7.50;99.90;;;;;;7594962;19;21238;-73
2022/11/26 11:42:39;;;;;;;26.10;8.70;;;7.50;99.90;;;;;;7599282;19;20022;-73
2022/11/26 11:45:26;;;;;;;30.65;10.10;;;7.60;99.90;;;;;;7592861;19;20366;-76
2022/11/26 11:48:26;;;;;;;23.17;11.25;;;8.10;99.90;;;;;;7595407;19;20015;-74
2022/11/26 11:51:16;;;;;;;32.22;10.02;;;8.50;99.90;;;;;;7600367;19;20405;-75
2022/11/26 11:53:57;;;;;;;23.67;9.45;;;8.80;99.90;;;;;;7590214;19;20109;-73
2022/11/26 11:56:45;;;;;;;20.92;10.35;;;8.70;99.90;;;;;;7597462;19;20018;-75
2022/11/26 11:59:20;;;;;;;23.35;9.35;;;8.50;99.90;;;;;;7600993;19;20025;-73
2022/11/26 12:02:29;;;;;;;29.42;10.82;;;8.30;99.90;;;;;;7605113;19;20520;-74
2022/11/26 12:05:39;;;;;;;27.98;10.98;;;8.10;99.90;;;;;;7610931;19;20607;-74
2022/11/26 12:08:33;;;;;;;24.88;10.77;;;8.00;99.90;;;;;;7605281;19;20030;-74
2022/11/26 12:11:15;;;;;;;25.30;13.43;;;7.90;99.90;;;;;;7598324;19;20018;-73
2022/11/26 12:14:21;;;;;;;21.67;11.13;;;7.80;99.90;;;;;;7581510;19;20030;-74
2022/11/26 12:17:03;;;;;;;21.33;11.45;;;7.60;99.90;;;;;;7600050;19;20807;-74
2022/11/26 12:20:00;;;;;;;25.80;13.00;;;7.60;99.90;;;;;;7577282;19;20020;-74
2022/11/26 12:22:41;;;;;;;34.42;12.80;;;7.70;99.90;;;;;;7610404;19;20531;-74
2022/11/26 12:25:23;;;;;;;20.75;12.20;;;7.70;99.90;;;;;;7603175;19;20472;-73
2022/11/26 12:28:00;;;;;;;24.75;11.52;;;7.70;99.90;;;;;;7592907;19;20037;-73
2022/11/26 12:30:53;;;;;;;23.50;11.40;;;7.70;99.90;;;;;;7598857;19;20049;-75
2022/11/26 12:33:40;;;;;;;32.80;12.38;;;7.60;99.90;;;;;;7615661;19;20023;-74
2022/11/26 12:36:24;;;;;;;27.83;12.20;;;7.70;99.90;;;;;;7597018;19;20022;-73
2022/11/26 12:38:59;;;;;;;;;;;7.90;99.90;;;;;;7603228;19;20766;-73
2022/11/26 12:41:42;;;;;;;21.30;11.90;;;8.10;99.90;;;;;;7595255;19;19930;-75
2022/11/26 12:44:38;;;;;;;24.25;11.63;;;8.30;99.90;;;;;;7547738;19;20014;-73
2022/11/26 12:47:27;;;;;;;25.27;11.68;;;8.30;99.90;;;;;;7577411;19;20017;-76
2022/11/26 12:50:25;;;;;;;21.75;10.43;;;8.30;99.90;;;;;;7594889;19;20952;-74
2022/11/26 12:53:11;;;;;;;20.20;10.18;;;8.20;99.90;;;;;;7600634;19;20014;-76
2022/11/26 12:55:57;;;;;;;17.63;9.68;;;8.00;99.90;;;;;;7595137;19;20044;-73
2022/11/26 12:59:01;;;;;;;21.55;10.75;;;7.90;99.90;;;;;;7598633;19;20022;-74
2022/11/26 13:01:34;;;;;;;21.58;11.13;;;7.80;99.90;;;;;;7583751;19;20006;-73
2022/11/26 13:04:08;;;;;;;22.92;10.70;;;7.70;99.90;;;;;;7599186;19;20549;-74
2022/11/26 13:07:17;;;;;;;24.95;11.57;;;7.80;99.90;;;;;;7593632;19;20018;-76
2022/11/26 13:10:05;;;;;;;26.73;12.32;;;7.70;99.90;;;;;;7583847;19;20011;-74
2022/11/26 13:12:50;;;;;;;20.10;10.13;;;7.80;99.90;;;;;;7594168;19;20327;-74
2022/11/26 13:15:42;;;;;;;21.33;11.80;;;7.70;99.90;;;;;;7589678;19;20015;-76
2022/11/26 13:18:32;;;;;;;26.67;10.95;;;7.80;99.90;;;;;;7585588;19;20014;-73
2022/11/26 13:21:18;;;;;;;27.25;11.77;;;8.00;99.90;;;;;;7583910;19;20025;-75
2022/11/26 13:24:02;;;;;;;26.65;10.27;;;8.10;99.90;;;;;;7578682;19;20018;-74
2022/11/26 13:26:40;;;;;;;23.73;9.90;;;8.20;99.90;;;;;;7576847;19;20162;-73
2022/11/26 13:29:43;;;;;;;25.88;12.07;;;8.10;99.90;;;;;;7576904;19;20098;-72
2022/11/26 13:32:53;;;;;;;21.98;9.27;;;8.10;99.90;;;;;;7578612;19;20018;-74
2022/11/26 13:35:25;;;;;;;16.08;7.95;;;7.90;99.90;;;;;;7572167;19;20025;-74
2022/11/26 13:38:13;;;;;;;19.23;8.00;;;7.80;99.90;;;;;;7584541;19;20018;-74